Terminal Aerodrome Forecast
Issued by NWS Memphis, TN

Home | Current Version | Previous Version | Text Only | Print | Product List | Glossary On
Versions: 1 2 3 4 5 6 7 8 9 10 11 12 13
000
FTUS44 KMEG 271137
TAFMKL
TAF
KMKL 271137Z 2712/2812 33015G25KT P6SM OVC020
     FM271500 33010KT P6SM BKN025
     FM272200 34008KT P6SM SCT030 SCT250
     FM280000 00000KT P6SM SCT150
     FM280600 00000KT P6SM BKN100=

USA.gov is the U.S. government's official web portal to all federal, state and local government web resources and services.